sensor_id;sensor_type;location;lat;lon;timestamp;P1;durP1;ratioP1;P2;durP2;ratioP2
82372;SDS011;72000;42.828;23.382;2023-12-20T00:00:53;19.98;;;7.72;;
82372;SDS011;72000;42.828;23.382;2023-12-20T00:03:19;17.85;;;6.88;;
82372;SDS011;72000;42.828;23.382;2023-12-20T00:05:45;18.10;;;7.03;;
82372;SDS011;72000;42.828;23.382;2023-12-20T00:08:11;18.55;;;7.15;;
82372;SDS011;72000;42.828;23.382;2023-12-20T00:10:36;15.35;;;6.45;;
82372;SDS011;72000;42.828;23.382;2023-12-20T00:13:02;20.15;;;7.40;;
82372;SDS011;72000;42.828;23.382;2023-12-20T00:15:28;17.48;;;6.63;;
82372;SDS011;72000;42.828;23.382;2023-12-20T00:17:53;16.35;;;6.30;;
82372;SDS011;72000;42.828;23.382;2023-12-20T00:20:19;15.80;;;6.13;;
82372;SDS011;72000;42.828;23.382;2023-12-20T00:22:44;15.60;;;6.43;;
82372;SDS011;72000;42.828;23.382;2023-12-20T00:25:10;15.30;;;6.20;;
82372;SDS011;72000;42.828;23.382;2023-12-20T00:27:36;16.63;;;6.75;;
82372;SDS011;72000;42.828;23.382;2023-12-20T00:30:01;17.35;;;7.30;;
82372;SDS011;72000;42.828;23.382;2023-12-20T00:32:27;18.85;;;7.53;;
82372;SDS011;72000;42.828;23.382;2023-12-20T00:34:52;18.48;;;7.63;;
82372;SDS011;72000;42.828;23.382;2023-12-20T00:37:18;20.08;;;7.68;;
82372;SDS011;72000;42.828;23.382;2023-12-20T00:39:44;14.30;;;6.13;;
82372;SDS011;72000;42.828;23.382;2023-12-20T00:42:09;15.95;;;7.13;;
82372;SDS011;72000;42.828;23.382;2023-12-20T00:44:35;18.25;;;7.25;;
82372;SDS011;72000;42.828;23.382;2023-12-20T00:47:00;20.08;;;7.43;;
82372;SDS011;72000;42.828;23.382;2023-12-20T00:49:26;21.45;;;7.97;;
82372;SDS011;72000;42.828;23.382;2023-12-20T00:51:52;20.33;;;9.02;;
82372;SDS011;72000;42.828;23.382;2023-12-20T00:54:18;22.25;;;8.90;;
82372;SDS011;72000;42.828;23.382;2023-12-20T00:56:43;18.90;;;8.15;;
82372;SDS011;72000;42.828;23.382;2023-12-20T00:59:09;17.35;;;7.45;;
82372;SDS011;72000;42.828;23.382;2023-12-20T01:01:35;19.75;;;7.90;;
82372;SDS011;72000;42.828;23.382;2023-12-20T01:04:00;21.00;;;7.75;;
82372;SDS011;72000;42.828;23.382;2023-12-20T01:06:26;17.65;;;7.47;;
82372;SDS011;72000;42.828;23.382;2023-12-20T01:08:51;17.50;;;6.63;;
82372;SDS011;72000;42.828;23.382;2023-12-20T01:11:17;19.20;;;7.13;;
82372;SDS011;72000;42.828;23.382;2023-12-20T01:13:42;18.95;;;7.28;;
82372;SDS011;72000;42.828;23.382;2023-12-20T01:16:11;17.75;;;7.30;;
82372;SDS011;72000;42.828;23.382;2023-12-20T01:18:37;18.25;;;6.93;;
82372;SDS011;72000;42.828;23.382;2023-12-20T01:21:04;19.77;;;7.65;;
82372;SDS011;72000;42.828;23.382;2023-12-20T01:23:30;18.98;;;6.97;;
82372;SDS011;72000;42.828;23.382;2023-12-20T01:25:56;16.30;;;7.20;;
82372;SDS011;72000;42.828;23.382;2023-12-20T01:28:21;20.58;;;6.90;;
82372;SDS011;72000;42.828;23.382;2023-12-20T01:30:47;18.38;;;7.43;;
82372;SDS011;72000;42.828;23.382;2023-12-20T01:33:13;19.58;;;8.02;;
82372;SDS011;72000;42.828;23.382;2023-12-20T01:35:38;16.48;;;7.25;;
82372;SDS011;72000;42.828;23.382;2023-12-20T01:38:04;20.42;;;7.63;;
82372;SDS011;72000;42.828;23.382;2023-12-20T01:40:30;19.42;;;7.78;;
82372;SDS011;72000;42.828;23.382;2023-12-20T01:42:59;17.73;;;7.40;;
82372;SDS011;72000;42.828;23.382;2023-12-20T01:45:25;17.67;;;7.65;;
82372;SDS011;72000;42.828;23.382;2023-12-20T01:47:51;16.15;;;7.45;;
82372;SDS011;72000;42.828;23.382;2023-12-20T01:50:17;16.77;;;7.28;;
82372;SDS011;72000;42.828;23.382;2023-12-20T01:52:42;18.45;;;7.40;;
82372;SDS011;72000;42.828;23.382;2023-12-20T01:55:09;17.50;;;7.28;;
82372;SDS011;72000;42.828;23.382;2023-12-20T01:57:41;20.50;;;7.15;;
82372;SDS011;72000;42.828;23.382;2023-12-20T02:00:07;16.85;;;6.65;;
82372;SDS011;72000;42.828;23.382;2023-12-20T02:02:35;16.73;;;7.50;;
82372;SDS011;72000;42.828;23.382;2023-12-20T02:05:02;21.52;;;7.95;;
82372;SDS011;72000;42.828;23.382;2023-12-20T02:07:29;19.05;;;7.45;;
82372;SDS011;72000;42.828;23.382;2023-12-20T02:09:56;19.88;;;8.10;;
82372;SDS011;72000;42.828;23.382;2023-12-20T02:12:22;21.52;;;7.85;;
82372;SDS011;72000;42.828;23.382;2023-12-20T02:14:48;19.77;;;7.93;;
82372;SDS011;72000;42.828;23.382;2023-12-20T02:17:14;22.35;;;8.15;;
82372;SDS011;72000;42.828;23.382;2023-12-20T02:19:40;20.05;;;8.30;;
82372;SDS011;72000;42.828;23.382;2023-12-20T02:22:09;19.25;;;7.00;;
82372;SDS011;72000;42.828;23.382;2023-12-20T02:24:35;21.45;;;8.27;;
82372;SDS011;72000;42.828;23.382;2023-12-20T02:27:01;20.10;;;8.20;;
82372;SDS011;72000;42.828;23.382;2023-12-20T02:29:26;22.38;;;8.52;;
82372;SDS011;72000;42.828;23.382;2023-12-20T02:31:52;26.83;;;10.40;;
82372;SDS011;72000;42.828;23.382;2023-12-20T02:34:18;25.48;;;10.20;;
82372;SDS011;72000;42.828;23.382;2023-12-20T02:36:43;23.30;;;9.48;;
82372;SDS011;72000;42.828;23.382;2023-12-20T02:39:09;23.67;;;9.13;;
82372;SDS011;72000;42.828;23.382;2023-12-20T02:41:34;20.65;;;8.57;;
82372;SDS011;72000;42.828;23.382;2023-12-20T02:44:01;21.63;;;8.43;;
82372;SDS011;72000;42.828;23.382;2023-12-20T02:46:27;20.98;;;8.13;;
82372;SDS011;72000;42.828;23.382;2023-12-20T02:48:53;15.90;;;7.32;;
82372;SDS011;72000;42.828;23.382;2023-12-20T02:51:18;15.48;;;6.57;;
82372;SDS011;72000;42.828;23.382;2023-12-20T02:53:44;15.68;;;6.45;;
82372;SDS011;72000;42.828;23.382;2023-12-20T02:56:09;14.00;;;5.88;;
82372;SDS011;72000;42.828;23.382;2023-12-20T02:58:35;16.90;;;6.18;;
82372;SDS011;72000;42.828;23.382;2023-12-20T03:01:01;17.98;;;6.45;;
82372;SDS011;72000;42.828;23.382;2023-12-20T03:03:26;15.60;;;6.68;;
82372;SDS011;72000;42.828;23.382;2023-12-20T03:05:52;18.80;;;7.55;;
82372;SDS011;72000;42.828;23.382;2023-12-20T03:08:18;20.63;;;8.00;;
82372;SDS011;72000;42.828;23.382;2023-12-20T03:10:43;21.98;;;9.57;;
82372;SDS011;72000;42.828;23.382;2023-12-20T03:13:09;22.15;;;8.50;;
82372;SDS011;72000;42.828;23.382;2023-12-20T03:15:34;19.13;;;8.15;;
82372;SDS011;72000;42.828;23.382;2023-12-20T03:18:00;21.67;;;8.25;;
82372;SDS011;72000;42.828;23.382;2023-12-20T03:20:26;20.45;;;7.88;;
82372;SDS011;72000;42.828;23.382;2023-12-20T03:22:51;24.85;;;10.10;;
82372;SDS011;72000;42.828;23.382;2023-12-20T03:25:17;27.63;;;9.95;;
82372;SDS011;72000;42.828;23.382;2023-12-20T03:27:42;27.23;;;9.85;;
82372;SDS011;72000;42.828;23.382;2023-12-20T03:30:08;30.98;;;10.88;;
82372;SDS011;72000;42.828;23.382;2023-12-20T03:32:34;46.33;;;15.90;;
82372;SDS011;72000;42.828;23.382;2023-12-20T03:35:00;53.78;;;18.90;;
82372;SDS011;72000;42.828;23.382;2023-12-20T03:37:25;52.40;;;18.20;;
82372;SDS011;72000;42.828;23.382;2023-12-20T03:39:51;50.92;;;17.80;;
82372;SDS011;72000;42.828;23.382;2023-12-20T03:42:16;43.92;;;16.98;;
82372;SDS011;72000;42.828;23.382;2023-12-20T03:44:42;43.45;;;17.15;;
82372;SDS011;72000;42.828;23.382;2023-12-20T03:47:08;46.25;;;17.30;;
82372;SDS011;72000;42.828;23.382;2023-12-20T03:49:33;49.17;;;18.25;;
82372;SDS011;72000;42.828;23.382;2023-12-20T03:51:59;47.50;;;17.30;;
82372;SDS011;72000;42.828;23.382;2023-12-20T03:54:25;47.78;;;17.88;;
82372;SDS011;72000;42.828;23.382;2023-12-20T03:56:50;38.95;;;16.15;;
82372;SDS011;72000;42.828;23.382;2023-12-20T03:59:17;29.20;;;11.10;;
82372;SDS011;72000;42.828;23.382;2023-12-20T04:01:43;26.67;;;9.82;;
82372;SDS011;72000;42.828;23.382;2023-12-20T04:04:12;92.25;;;25.02;;
82372;SDS011;72000;42.828;23.382;2023-12-20T04:06:38;52.80;;;17.88;;
82372;SDS011;72000;42.828;23.382;2023-12-20T04:09:04;56.05;;;17.95;;
82372;SDS011;72000;42.828;23.382;2023-12-20T04:11:29;65.97;;;19.42;;
82372;SDS011;72000;42.828;23.382;2023-12-20T04:13:55;51.10;;;17.75;;
82372;SDS011;72000;42.828;23.382;2023-12-20T04:16:21;60.03;;;21.20;;
82372;SDS011;72000;42.828;23.382;2023-12-20T04:18:46;61.58;;;19.90;;
82372;SDS011;72000;42.828;23.382;2023-12-20T04:21:12;60.45;;;21.13;;
82372;SDS011;72000;42.828;23.382;2023-12-20T04:23:37;43.20;;;15.43;;
82372;SDS011;72000;42.828;23.382;2023-12-20T04:26:03;42.50;;;15.32;;
82372;SDS011;72000;42.828;23.382;2023-12-20T04:28:29;37.45;;;12.93;;
82372;SDS011;72000;42.828;23.382;2023-12-20T04:30:57;35.85;;;13.52;;
82372;SDS011;72000;42.828;23.382;2023-12-20T04:33:23;31.55;;;12.88;;
82372;SDS011;72000;42.828;23.382;2023-12-20T04:35:48;36.83;;;13.43;;
82372;SDS011;72000;42.828;23.382;2023-12-20T04:38:14;34.15;;;12.65;;
82372;SDS011;72000;42.828;23.382;2023-12-20T04:40:39;32.90;;;13.13;;
82372;SDS011;72000;42.828;23.382;2023-12-20T04:43:06;29.55;;;11.73;;
82372;SDS011;72000;42.828;23.382;2023-12-20T04:45:32;24.83;;;9.50;;
82372;SDS011;72000;42.828;23.382;2023-12-20T04:47:58;32.75;;;11.40;;
82372;SDS011;72000;42.828;23.382;2023-12-20T04:50:24;35.47;;;13.65;;
82372;SDS011;72000;42.828;23.382;2023-12-20T04:52:49;33.10;;;12.85;;
82372;SDS011;72000;42.828;23.382;2023-12-20T04:55:15;35.38;;;12.30;;
82372;SDS011;72000;42.828;23.382;2023-12-20T04:57:41;29.10;;;8.27;;
82372;SDS011;72000;42.828;23.382;2023-12-20T05:00:06;18.95;;;7.45;;
82372;SDS011;72000;42.828;23.382;2023-12-20T05:02:34;26.52;;;10.27;;
82372;SDS011;72000;42.828;23.382;2023-12-20T05:05:02;29.05;;;11.15;;
82372;SDS011;72000;42.828;23.382;2023-12-20T05:07:28;26.30;;;9.85;;
82372;SDS011;72000;42.828;23.382;2023-12-20T05:09:53;29.70;;;10.10;;
82372;SDS011;72000;42.828;23.382;2023-12-20T05:12:19;24.25;;;9.45;;
82372;SDS011;72000;42.828;23.382;2023-12-20T05:14:45;23.05;;;9.20;;
82372;SDS011;72000;42.828;23.382;2023-12-20T05:17:11;24.10;;;9.00;;
82372;SDS011;72000;42.828;23.382;2023-12-20T05:19:37;27.02;;;10.15;;
82372;SDS011;72000;42.828;23.382;2023-12-20T05:22:02;31.05;;;11.60;;
82372;SDS011;72000;42.828;23.382;2023-12-20T05:24:28;25.42;;;10.88;;
82372;SDS011;72000;42.828;23.382;2023-12-20T05:26:54;23.50;;;9.15;;
82372;SDS011;72000;42.828;23.382;2023-12-20T05:29:20;24.23;;;9.15;;
82372;SDS011;72000;42.828;23.382;2023-12-20T05:31:46;19.90;;;8.02;;
82372;SDS011;72000;42.828;23.382;2023-12-20T05:34:11;20.92;;;8.40;;
82372;SDS011;72000;42.828;23.382;2023-12-20T05:36:37;23.38;;;8.55;;
82372;SDS011;72000;42.828;23.382;2023-12-20T05:39:02;21.95;;;8.52;;
82372;SDS011;72000;42.828;23.382;2023-12-20T05:41:33;26.38;;;9.88;;
82372;SDS011;72000;42.828;23.382;2023-12-20T05:43:58;26.75;;;9.73;;
82372;SDS011;72000;42.828;23.382;2023-12-20T05:46:27;23.55;;;9.63;;
82372;SDS011;72000;42.828;23.382;2023-12-20T05:48:55;24.08;;;9.63;;
82372;SDS011;72000;42.828;23.382;2023-12-20T05:51:21;24.05;;;9.85;;
82372;SDS011;72000;42.828;23.382;2023-12-20T05:53:47;24.30;;;9.55;;
82372;SDS011;72000;42.828;23.382;2023-12-20T05:56:14;26.95;;;10.15;;
82372;SDS011;72000;42.828;23.382;2023-12-20T05:58:40;28.15;;;10.48;;
82372;SDS011;72000;42.828;23.382;2023-12-20T06:01:06;21.95;;;9.50;;
82372;SDS011;72000;42.828;23.382;2023-12-20T06:03:33;21.10;;;8.77;;
82372;SDS011;72000;42.828;23.382;2023-12-20T06:05:59;29.02;;;9.40;;
82372;SDS011;72000;42.828;23.382;2023-12-20T06:08:31;31.40;;;9.48;;
82372;SDS011;72000;42.828;23.382;2023-12-20T06:10:57;25.80;;;9.85;;
82372;SDS011;72000;42.828;23.382;2023-12-20T06:13:22;26.85;;;10.38;;
82372;SDS011;72000;42.828;23.382;2023-12-20T06:15:48;24.15;;;9.60;;
82372;SDS011;72000;42.828;23.382;2023-12-20T06:18:13;24.20;;;9.52;;
82372;SDS011;72000;42.828;23.382;2023-12-20T06:20:39;21.75;;;9.05;;
82372;SDS011;72000;42.828;23.382;2023-12-20T06:23:05;23.63;;;9.23;;
82372;SDS011;72000;42.828;23.382;2023-12-20T06:25:30;27.15;;;9.77;;
82372;SDS011;72000;42.828;23.382;2023-12-20T06:27:56;22.33;;;9.20;;
82372;SDS011;72000;42.828;23.382;2023-12-20T06:30:21;25.25;;;10.35;;
82372;SDS011;72000;42.828;23.382;2023-12-20T06:32:47;23.05;;;9.23;;
82372;SDS011;72000;42.828;23.382;2023-12-20T06:35:13;27.08;;;9.68;;
82372;SDS011;72000;42.828;23.382;2023-12-20T06:37:38;28.35;;;10.55;;
82372;SDS011;72000;42.828;23.382;2023-12-20T06:40:08;28.10;;;10.30;;
82372;SDS011;72000;42.828;23.382;2023-12-20T06:42:34;34.03;;;11.10;;
82372;SDS011;72000;42.828;23.382;2023-12-20T06:45:00;32.75;;;11.48;;
82372;SDS011;72000;42.828;23.382;2023-12-20T06:47:25;33.13;;;12.13;;
82372;SDS011;72000;42.828;23.382;2023-12-20T06:49:51;33.10;;;11.65;;
82372;SDS011;72000;42.828;23.382;2023-12-20T06:52:17;30.13;;;11.75;;
82372;SDS011;72000;42.828;23.382;2023-12-20T06:54:43;31.63;;;10.77;;
82372;SDS011;72000;42.828;23.382;2023-12-20T06:57:08;31.98;;;12.15;;
82372;SDS011;72000;42.828;23.382;2023-12-20T06:59:38;33.20;;;11.63;;
82372;SDS011;72000;42.828;23.382;2023-12-20T07:02:06;29.80;;;11.15;;
82372;SDS011;72000;42.828;23.382;2023-12-20T07:04:39;27.52;;;10.82;;
82372;SDS011;72000;42.828;23.382;2023-12-20T07:07:05;32.25;;;12.45;;
82372;SDS011;72000;42.828;23.382;2023-12-20T07:09:32;36.40;;;13.18;;
82372;SDS011;72000;42.828;23.382;2023-12-20T07:11:58;42.10;;;14.70;;
82372;SDS011;72000;42.828;23.382;2023-12-20T07:14:23;28.75;;;11.02;;
82372;SDS011;72000;42.828;23.382;2023-12-20T07:16:49;40.58;;;11.95;;
82372;SDS011;72000;42.828;23.382;2023-12-20T07:19:14;26.15;;;10.77;;
82372;SDS011;72000;42.828;23.382;2023-12-20T07:21:43;31.17;;;11.05;;
82372;SDS011;72000;42.828;23.382;2023-12-20T07:24:09;27.38;;;10.43;;
82372;SDS011;72000;42.828;23.382;2023-12-20T07:26:34;30.25;;;10.90;;
82372;SDS011;72000;42.828;23.382;2023-12-20T07:29:00;29.23;;;11.05;;
82372;SDS011;72000;42.828;23.382;2023-12-20T07:31:26;29.73;;;10.82;;
82372;SDS011;72000;42.828;23.382;2023-12-20T07:33:51;29.52;;;12.63;;
82372;SDS011;72000;42.828;23.382;2023-12-20T07:36:20;32.25;;;11.63;;
82372;SDS011;72000;42.828;23.382;2023-12-20T07:38:46;31.98;;;12.07;;
82372;SDS011;72000;42.828;23.382;2023-12-20T07:41:12;29.15;;;12.00;;
82372;SDS011;72000;42.828;23.382;2023-12-20T07:43:38;33.15;;;11.85;;
82372;SDS011;72000;42.828;23.382;2023-12-20T07:46:06;29.85;;;11.50;;
82372;SDS011;72000;42.828;23.382;2023-12-20T07:48:33;36.42;;;12.93;;
82372;SDS011;72000;42.828;23.382;2023-12-20T07:50:59;32.33;;;11.90;;
82372;SDS011;72000;42.828;23.382;2023-12-20T07:53:25;33.58;;;11.85;;
82372;SDS011;72000;42.828;23.382;2023-12-20T07:55:50;30.65;;;11.57;;
82372;SDS011;72000;42.828;23.382;2023-12-20T07:58:17;29.48;;;11.05;;
82372;SDS011;72000;42.828;23.382;2023-12-20T08:00:43;29.05;;;11.07;;
82372;SDS011;72000;42.828;23.382;2023-12-20T08:03:09;29.92;;;11.10;;
82372;SDS011;72000;42.828;23.382;2023-12-20T08:05:34;32.88;;;11.05;;
82372;SDS011;72000;42.828;23.382;2023-12-20T08:08:00;31.95;;;11.75;;
82372;SDS011;72000;42.828;23.382;2023-12-20T08:10:25;26.45;;;10.50;;
82372;SDS011;72000;42.828;23.382;2023-12-20T08:12:52;27.27;;;10.38;;
82372;SDS011;72000;42.828;23.382;2023-12-20T08:15:17;26.85;;;10.10;;
82372;SDS011;72000;42.828;23.382;2023-12-20T08:17:43;32.03;;;10.07;;
82372;SDS011;72000;42.828;23.382;2023-12-20T08:20:08;32.25;;;10.48;;
82372;SDS011;72000;42.828;23.382;2023-12-20T08:22:34;28.15;;;11.80;;
82372;SDS011;72000;42.828;23.382;2023-12-20T08:25:00;30.40;;;11.15;;
82372;SDS011;72000;42.828;23.382;2023-12-20T08:27:26;30.15;;;11.30;;
82372;SDS011;72000;42.828;23.382;2023-12-20T08:29:52;31.42;;;11.80;;
82372;SDS011;72000;42.828;23.382;2023-12-20T08:32:17;36.58;;;12.05;;
82372;SDS011;72000;42.828;23.382;2023-12-20T08:34:43;32.28;;;11.15;;
82372;SDS011;72000;42.828;23.382;2023-12-20T08:37:08;44.67;;;13.63;;
82372;SDS011;72000;42.828;23.382;2023-12-20T08:39:34;79.07;;;14.23;;
82372;SDS011;72000;42.828;23.382;2023-12-20T08:41:59;46.22;;;13.30;;
82372;SDS011;72000;42.828;23.382;2023-12-20T08:44:25;49.80;;;14.38;;
82372;SDS011;72000;42.828;23.382;2023-12-20T08:46:50;62.13;;;14.57;;
82372;SDS011;72000;42.828;23.382;2023-12-20T08:49:16;43.55;;;15.07;;
82372;SDS011;72000;42.828;23.382;2023-12-20T08:51:42;43.35;;;14.95;;
82372;SDS011;72000;42.828;23.382;2023-12-20T08:54:08;39.78;;;14.65;;
82372;SDS011;72000;42.828;23.382;2023-12-20T08:56:33;75.15;;;17.77;;
82372;SDS011;72000;42.828;23.382;2023-12-20T08:58:59;61.90;;;19.30;;
82372;SDS011;72000;42.828;23.382;2023-12-20T09:01:25;87.22;;;23.33;;
82372;SDS011;72000;42.828;23.382;2023-12-20T09:03:50;74.45;;;23.67;;
82372;SDS011;72000;42.828;23.382;2023-12-20T09:06:16;73.57;;;21.67;;
82372;SDS011;72000;42.828;23.382;2023-12-20T09:08:41;81.50;;;22.20;;
82372;SDS011;72000;42.828;23.382;2023-12-20T09:11:07;75.22;;;21.35;;
82372;SDS011;72000;42.828;23.382;2023-12-20T09:13:32;82.38;;;21.95;;
82372;SDS011;72000;42.828;23.382;2023-12-20T09:15:58;87.82;;;22.88;;
82372;SDS011;72000;42.828;23.382;2023-12-20T09:18:23;85.95;;;21.33;;
82372;SDS011;72000;42.828;23.382;2023-12-20T09:20:52;72.28;;;21.02;;
82372;SDS011;72000;42.828;23.382;2023-12-20T09:23:18;69.30;;;20.63;;
82372;SDS011;72000;42.828;23.382;2023-12-20T09:25:43;64.22;;;20.52;;
82372;SDS011;72000;42.828;23.382;2023-12-20T09:28:09;75.07;;;22.55;;
82372;SDS011;72000;42.828;23.382;2023-12-20T09:30:35;78.57;;;22.05;;
82372;SDS011;72000;42.828;23.382;2023-12-20T09:33:04;60.72;;;20.20;;
82372;SDS011;72000;42.828;23.382;2023-12-20T09:35:32;65.05;;;21.40;;
82372;SDS011;72000;42.828;23.382;2023-12-20T09:37:57;61.70;;;20.92;;
82372;SDS011;72000;42.828;23.382;2023-12-20T09:40:23;63.20;;;20.70;;
82372;SDS011;72000;42.828;23.382;2023-12-20T09:42:58;68.70;;;20.38;;
82372;SDS011;72000;42.828;23.382;2023-12-20T09:45:28;67.68;;;21.15;;
82372;SDS011;72000;42.828;23.382;2023-12-20T09:47:55;65.85;;;21.75;;
82372;SDS011;72000;42.828;23.382;2023-12-20T09:50:23;70.05;;;20.67;;
82372;SDS011;72000;42.828;23.382;2023-12-20T09:52:49;82.57;;;21.65;;
82372;SDS011;72000;42.828;23.382;2023-12-20T09:55:20;73.72;;;21.77;;
82372;SDS011;72000;42.828;23.382;2023-12-20T09:57:49;84.45;;;21.63;;
82372;SDS011;72000;42.828;23.382;2023-12-20T10:00:14;101.57;;;23.33;;
82372;SDS011;72000;42.828;23.382;2023-12-20T10:02:56;86.03;;;22.90;;
82372;SDS011;72000;42.828;23.382;2023-12-20T10:05:31;69.07;;;22.02;;
82372;SDS011;72000;42.828;23.382;2023-12-20T10:07:57;82.97;;;23.85;;
82372;SDS011;72000;42.828;23.382;2023-12-20T10:10:24;78.72;;;21.23;;
82372;SDS011;72000;42.828;23.382;2023-12-20T10:13:03;70.75;;;19.70;;
82372;SDS011;72000;42.828;23.382;2023-12-20T10:15:34;65.32;;;22.02;;
82372;SDS011;72000;42.828;23.382;2023-12-20T10:18:00;71.15;;;20.60;;
82372;SDS011;72000;42.828;23.382;2023-12-20T10:22:54;59.90;;;17.23;;
82372;SDS011;72000;42.828;23.382;2023-12-20T10:25:20;66.65;;;20.10;;
82372;SDS011;72000;42.828;23.382;2023-12-20T10:27:46;70.53;;;21.38;;
82372;SDS011;72000;42.828;23.382;2023-12-20T10:30:13;134.23;;;23.17;;
82372;SDS011;72000;42.828;23.382;2023-12-20T10:32:42;81.85;;;23.42;;
82372;SDS011;72000;42.828;23.382;2023-12-20T10:35:08;88.85;;;24.42;;
82372;SDS011;72000;42.828;23.382;2023-12-20T10:37:37;89.78;;;23.45;;
82372;SDS011;72000;42.828;23.382;2023-12-20T10:40:03;80.03;;;22.02;;
82372;SDS011;72000;42.828;23.382;2023-12-20T10:42:31;75.07;;;23.70;;
82372;SDS011;72000;42.828;23.382;2023-12-20T10:44:59;89.88;;;24.23;;
82372;SDS011;72000;42.828;23.382;2023-12-20T10:49:52;83.82;;;22.95;;
82372;SDS011;72000;42.828;23.382;2023-12-20T10:52:17;85.10;;;24.73;;
82372;SDS011;72000;42.828;23.382;2023-12-20T10:54:44;105.97;;;25.25;;
82372;SDS011;72000;42.828;23.382;2023-12-20T10:57:10;95.32;;;23.67;;
82372;SDS011;72000;42.828;23.382;2023-12-20T10:59:36;98.03;;;24.80;;
82372;SDS011;72000;42.828;23.382;2023-12-20T11:02:03;112.80;;;26.73;;
82372;SDS011;72000;42.828;23.382;2023-12-20T11:07:35;80.30;;;24.38;;
82372;SDS011;72000;42.828;23.382;2023-12-20T11:10:14;100.85;;;25.30;;
82372;SDS011;72000;42.828;23.382;2023-12-20T11:12:46;79.90;;;24.38;;
82372;SDS011;72000;42.828;23.382;2023-12-20T11:15:13;77.97;;;23.90;;
82372;SDS011;72000;42.828;23.382;2023-12-20T11:20:06;62.17;;;21.33;;
82372;SDS011;72000;42.828;23.382;2023-12-20T11:22:35;77.63;;;23.08;;
82372;SDS011;72000;42.828;23.382;2023-12-20T11:25:06;80.00;;;23.13;;
82372;SDS011;72000;42.828;23.382;2023-12-20T11:27:41;86.43;;;23.33;;
82372;SDS011;72000;42.828;23.382;2023-12-20T11:30:08;187.43;;;27.23;;
82372;SDS011;72000;42.828;23.382;2023-12-20T11:32:35;87.95;;;24.38;;
82372;SDS011;72000;42.828;23.382;2023-12-20T11:35:16;80.35;;;24.10;;
82372;SDS011;72000;42.828;23.382;2023-12-20T11:37:43;141.38;;;27.20;;
82372;SDS011;72000;42.828;23.382;2023-12-20T11:40:11;105.82;;;25.40;;
82372;SDS011;72000;42.828;23.382;2023-12-20T11:42:39;101.95;;;26.17;;
82372;SDS011;72000;42.828;23.382;2023-12-20T11:45:08;111.22;;;24.70;;
82372;SDS011;72000;42.828;23.382;2023-12-20T11:47:47;191.30;;;29.52;;
82372;SDS011;72000;42.828;23.382;2023-12-20T11:50:15;108.15;;;30.13;;
82372;SDS011;72000;42.828;23.382;2023-12-20T11:52:41;135.05;;;30.17;;
82372;SDS011;72000;42.828;23.382;2023-12-20T11:55:06;243.48;;;29.95;;
82372;SDS011;72000;42.828;23.382;2023-12-20T11:57:32;114.25;;;28.60;;
82372;SDS011;72000;42.828;23.382;2023-12-20T12:00:02;187.10;;;30.30;;
82372;SDS011;72000;42.828;23.382;2023-12-20T12:02:28;93.63;;;25.95;;
82372;SDS011;72000;42.828;23.382;2023-12-20T12:04:53;92.50;;;26.67;;
82372;SDS011;72000;42.828;23.382;2023-12-20T12:07:21;139.15;;;27.00;;
82372;SDS011;72000;42.828;23.382;2023-12-20T12:09:47;166.27;;;27.35;;
82372;SDS011;72000;42.828;23.382;2023-12-20T12:12:13;146.35;;;28.38;;
82372;SDS011;72000;42.828;23.382;2023-12-20T12:14:39;88.95;;;26.20;;
82372;SDS011;72000;42.828;23.382;2023-12-20T12:17:12;113.88;;;25.70;;
82372;SDS011;72000;42.828;23.382;2023-12-20T12:19:38;116.32;;;27.13;;
82372;SDS011;72000;42.828;23.382;2023-12-20T12:24:36;191.25;;;28.13;;
82372;SDS011;72000;42.828;23.382;2023-12-20T12:27:02;232.32;;;28.23;;
82372;SDS011;72000;42.828;23.382;2023-12-20T12:29:28;102.00;;;26.15;;
82372;SDS011;72000;42.828;23.382;2023-12-20T12:31:54;128.95;;;27.23;;
82372;SDS011;72000;42.828;23.382;2023-12-20T12:34:23;122.07;;;26.13;;
82372;SDS011;72000;42.828;23.382;2023-12-20T12:36:48;197.73;;;28.05;;
82372;SDS011;72000;42.828;23.382;2023-12-20T12:39:14;100.57;;;25.27;;
82372;SDS011;72000;42.828;23.382;2023-12-20T12:41:40;179.43;;;27.13;;
82372;SDS011;72000;42.828;23.382;2023-12-20T12:44:06;86.65;;;24.20;;
82372;SDS011;72000;42.828;23.382;2023-12-20T12:46:32;101.90;;;26.00;;
82372;SDS011;72000;42.828;23.382;2023-12-20T12:48:58;104.13;;;24.75;;
82372;SDS011;72000;42.828;23.382;2023-12-20T12:51:23;132.38;;;24.67;;
82372;SDS011;72000;42.828;23.382;2023-12-20T12:53:49;143.02;;;24.45;;
82372;SDS011;72000;42.828;23.382;2023-12-20T12:56:14;85.85;;;22.30;;
82372;SDS011;72000;42.828;23.382;2023-12-20T12:58:40;124.28;;;23.90;;
82372;SDS011;72000;42.828;23.382;2023-12-20T13:01:06;74.20;;;21.55;;
82372;SDS011;72000;42.828;23.382;2023-12-20T13:03:31;75.78;;;22.02;;
82372;SDS011;72000;42.828;23.382;2023-12-20T13:05:57;66.22;;;20.45;;
82372;SDS011;72000;42.828;23.382;2023-12-20T13:08:22;59.33;;;20.27;;
82372;SDS011;72000;42.828;23.382;2023-12-20T13:10:48;57.92;;;19.65;;
82372;SDS011;72000;42.828;23.382;2023-12-20T13:13:14;59.72;;;20.48;;
82372;SDS011;72000;42.828;23.382;2023-12-20T13:15:40;70.63;;;21.70;;
82372;SDS011;72000;42.828;23.382;2023-12-20T13:18:05;74.65;;;22.92;;
82372;SDS011;72000;42.828;23.382;2023-12-20T13:20:32;83.45;;;23.42;;
82372;SDS011;72000;42.828;23.382;2023-12-20T13:22:58;76.30;;;23.58;;
82372;SDS011;72000;42.828;23.382;2023-12-20T13:25:24;70.00;;;23.08;;
82372;SDS011;72000;42.828;23.382;2023-12-20T13:27:50;86.00;;;24.55;;
82372;SDS011;72000;42.828;23.382;2023-12-20T13:30:18;90.55;;;25.10;;
82372;SDS011;72000;42.828;23.382;2023-12-20T13:32:44;133.00;;;26.27;;
82372;SDS011;72000;42.828;23.382;2023-12-20T13:35:09;88.20;;;26.45;;
82372;SDS011;72000;42.828;23.382;2023-12-20T13:37:35;110.90;;;25.98;;
82372;SDS011;72000;42.828;23.382;2023-12-20T13:40:01;89.85;;;23.75;;
82372;SDS011;72000;42.828;23.382;2023-12-20T13:42:28;107.00;;;26.92;;
82372;SDS011;72000;42.828;23.382;2023-12-20T13:44:54;83.32;;;23.50;;
82372;SDS011;72000;42.828;23.382;2023-12-20T13:47:19;77.65;;;24.10;;
82372;SDS011;72000;42.828;23.382;2023-12-20T13:49:45;81.22;;;24.88;;
82372;SDS011;72000;42.828;23.382;2023-12-20T13:52:10;76.10;;;24.90;;
82372;SDS011;72000;42.828;23.382;2023-12-20T13:54:37;83.00;;;24.30;;
82372;SDS011;72000;42.828;23.382;2023-12-20T13:57:03;69.38;;;23.63;;
82372;SDS011;72000;42.828;23.382;2023-12-20T13:59:29;75.20;;;23.73;;
82372;SDS011;72000;42.828;23.382;2023-12-20T14:01:54;72.80;;;23.35;;
82372;SDS011;72000;42.828;23.382;2023-12-20T14:04:20;67.93;;;22.58;;
82372;SDS011;72000;42.828;23.382;2023-12-20T14:06:47;86.50;;;25.45;;
82372;SDS011;72000;42.828;23.382;2023-12-20T14:09:12;85.75;;;25.35;;
82372;SDS011;72000;42.828;23.382;2023-12-20T14:11:38;101.25;;;25.35;;
82372;SDS011;72000;42.828;23.382;2023-12-20T14:14:09;120.65;;;26.45;;
82372;SDS011;72000;42.828;23.382;2023-12-20T14:16:34;147.70;;;27.15;;
82372;SDS011;72000;42.828;23.382;2023-12-20T14:19:00;90.18;;;25.45;;